createdAt,value
2018-09-28T00:00:26.425Z,29.8
2018-09-28T00:01:27.999Z,29.8
2018-09-28T00:02:29.568Z,30.3
2018-09-28T00:03:31.132Z,29.3
2018-09-28T00:04:32.694Z,29.8
2018-09-28T00:05:34.267Z,30.3
2018-09-28T00:06:35.819Z,29.8
2018-09-28T00:07:37.387Z,29.8
2018-09-28T00:08:38.935Z,29.8
2018-09-28T00:09:40.509Z,29.8
2018-09-28T00:10:41.917Z,29.3
2018-09-28T00:11:43.337Z,29.8
2018-09-28T00:12:44.737Z,30.3
2018-09-28T00:13:46.151Z,29.8
2018-09-28T00:14:47.696Z,29.3
2018-09-28T00:15:49.094Z,29.8
2018-09-28T00:16:50.694Z,29.8
2018-09-28T00:17:52.239Z,30.8
2018-09-28T00:18:53.801Z,30.3
2018-09-28T00:19:55.207Z,30.3
2018-09-28T00:20:56.767Z,29.8
2018-09-28T00:21:58.330Z,30.3
2018-09-28T00:22:59.735Z,29.8
2018-09-28T00:24:01.144Z,29.3
2018-09-28T00:25:02.547Z,29.8
2018-09-28T00:26:04.248Z,29.8
2018-09-28T00:27:05.881Z,29.3
2018-09-28T00:28:07.456Z,29.3
2018-09-28T00:29:08.846Z,28.8
2018-09-28T00:30:10.413Z,29.3
2018-09-28T00:31:11.969Z,30.3
2018-09-28T00:32:13.545Z,29.8
2018-09-28T00:33:15.100Z,29.3
2018-09-28T00:34:16.560Z,29.3
2018-09-28T00:35:18.146Z,29.3
2018-09-28T00:36:19.567Z,28.8
2018-09-28T00:37:20.799Z,29.3
2018-09-28T00:38:22.199Z,28.8
2018-09-28T00:39:23.763Z,29.3
2018-09-28T00:40:25.317Z,29.8
2018-09-28T00:41:26.928Z,29.8
2018-09-28T00:42:28.497Z,29.8
2018-09-28T00:43:30.055Z,29.3
2018-09-28T00:44:31.617Z,29.3
2018-09-28T00:45:33.192Z,29.3
2018-09-28T00:46:34.406Z,28.8
2018-09-28T00:47:35.813Z,29.3
2018-09-28T00:48:36.873Z,29.3
2018-09-28T00:49:38.425Z,28.8
2018-09-28T00:50:39.639Z,28.8
2018-09-28T00:51:41.196Z,28.3
2018-09-28T00:52:42.751Z,29.3
2018-09-28T00:53:44.343Z,29.8
2018-09-28T00:54:45.911Z,29.8
2018-09-28T00:55:47.468Z,29.3
2018-09-28T00:56:49.036Z,28.3
2018-09-28T00:57:50.600Z,28.8
2018-09-28T00:58:52.149Z,29.8
2018-09-28T00:59:53.718Z,29.3
2018-09-28T01:00:55.116Z,29.3
2018-09-28T01:01:56.672Z,28.8
2018-09-28T01:02:58.237Z,29.3
2018-09-28T01:03:59.779Z,29.3
2018-09-28T01:05:01.180Z,28.8
2018-09-28T01:06:02.731Z,30.3
2018-09-28T01:07:04.276Z,28.8
2018-09-28T01:08:05.818Z,27.4
2018-09-28T01:09:07.369Z,25.9
2018-09-28T01:10:08.915Z,25.4
2018-09-28T01:11:10.149Z,24.9
2018-09-28T01:12:11.693Z,24.9
2018-09-28T01:13:13.237Z,25.9
2018-09-28T01:14:14.785Z,27.4
2018-09-28T01:15:16.376Z,29.3
2018-09-28T01:16:17.771Z,30.3
2018-09-28T01:17:19.355Z,31.3
2018-09-28T01:18:20.927Z,32.3
2018-09-28T01:19:22.488Z,33.2
2018-09-28T01:20:24.057Z,34.7
2018-09-28T01:21:25.606Z,34.2
2018-09-28T01:22:27.167Z,34.7
2018-09-28T01:23:28.716Z,35.2
2018-09-28T01:24:30.274Z,36.2
2018-09-28T01:25:31.839Z,36.2
2018-09-28T01:26:33.233Z,37.1
2018-09-28T01:27:34.452Z,37.1
2018-09-28T01:28:36.018Z,37.1
2018-09-28T01:29:37.572Z,38.1
2018-09-28T01:30:39.133Z,37.6
2018-09-28T01:31:40.682Z,38.6
2018-09-28T01:32:42.240Z,38.1
2018-09-28T01:33:43.629Z,38.1
2018-09-28T01:34:45.043Z,38.1
2018-09-28T01:35:46.599Z,38.1
2018-09-28T01:36:48.163Z,38.6
2018-09-28T01:37:49.705Z,38.1
2018-09-28T01:38:51.245Z,38.6
2018-09-28T01:39:52.796Z,38.1
2018-09-28T01:40:54.192Z,38.6
2018-09-28T01:41:55.749Z,38.6
2018-09-28T01:42:57.149Z,38.6
2018-09-28T01:43:58.540Z,39.1
2018-09-28T01:45:00.138Z,39.1
2018-09-28T01:46:01.698Z,39.1
2018-09-28T01:47:03.248Z,39.6
2018-09-28T01:48:04.811Z,39.6
2018-09-28T01:49:06.242Z,39.1
2018-09-28T01:50:07.813Z,39.1
2018-09-28T01:51:09.387Z,39.6
2018-09-28T01:52:10.795Z,39.6
2018-09-28T01:53:12.206Z,39.6
2018-09-28T01:54:13.610Z,39.6
2018-09-28T01:55:15.242Z,40.1
2018-09-28T01:56:16.620Z,40.1
2018-09-28T01:57:18.171Z,39.6
2018-09-28T01:58:19.733Z,39.6
2018-09-28T01:59:21.297Z,39.1
2018-09-28T02:00:22.841Z,39.6
2018-09-28T02:01:24.413Z,39.6
2018-09-28T02:02:25.958Z,39.6
2018-09-28T02:03:27.513Z,39.1
2018-09-28T02:04:29.099Z,39.6
2018-09-28T02:05:30.671Z,39.6
2018-09-28T02:06:32.211Z,40.1
2018-09-28T02:07:33.754Z,39.6
2018-09-28T02:09:07.064Z,39.6
2018-09-28T02:10:08.636Z,39.6
2018-09-28T02:11:10.021Z,39.6
2018-09-28T02:12:11.401Z,39.6
2018-09-28T02:13:12.957Z,39.1
2018-09-28T02:14:14.527Z,39.6
2018-09-28T02:15:16.077Z,39.1
2018-09-28T02:16:17.651Z,39.1
2018-09-28T02:17:19.080Z,39.6
2018-09-28T02:18:20.624Z,38.6
2018-09-28T02:19:22.176Z,39.6
2018-09-28T02:20:23.745Z,39.6
2018-09-28T02:21:25.300Z,38.6
2018-09-28T02:22:26.857Z,39.1
2018-09-28T02:23:28.427Z,39.1
2018-09-28T02:24:29.977Z,39.6
2018-09-28T02:25:31.366Z,39.1
2018-09-28T02:26:32.927Z,38.6
2018-09-28T02:27:34.531Z,39.1
2018-09-28T02:28:36.094Z,38.6
2018-09-28T02:29:37.676Z,39.1
2018-09-28T02:30:39.240Z,39.1
2018-09-28T02:31:40.816Z,39.6
2018-09-28T02:32:42.374Z,38.6
2018-09-28T02:33:43.962Z,38.6
2018-09-28T02:34:45.568Z,39.1
2018-09-28T02:35:46.966Z,38.1
2018-09-28T02:36:48.527Z,38.6
2018-09-28T02:37:50.084Z,38.6
2018-09-28T02:38:51.325Z,38.6
2018-09-28T02:39:52.887Z,39.1
2018-09-28T02:40:54.269Z,38.6
2018-09-28T02:41:55.687Z,38.6
2018-09-28T02:42:57.094Z,38.1
2018-09-28T02:43:58.646Z,38.6
2018-09-28T02:45:00.198Z,37.6
2018-09-28T02:46:01.776Z,38.6
2018-09-28T02:47:03.342Z,38.1
2018-09-28T02:48:04.912Z,38.6
2018-09-28T02:49:06.250Z,38.1
2018-09-28T02:50:07.871Z,38.6
2018-09-28T02:51:09.282Z,38.1
2018-09-28T02:52:10.818Z,38.6
2018-09-28T02:53:12.399Z,38.1
2018-09-28T02:54:13.990Z,38.6
2018-09-28T02:55:15.528Z,38.6
2018-09-28T02:56:17.083Z,38.6
2018-09-28T02:57:18.649Z,37.6
2018-09-28T02:58:20.203Z,37.6
2018-09-28T02:59:21.606Z,38.1
2018-09-28T03:00:23.172Z,37.6
2018-09-28T03:01:24.563Z,38.1
2018-09-28T03:02:26.158Z,38.6
2018-09-28T03:03:27.733Z,38.1
2018-09-28T03:04:29.290Z,37.6
2018-09-28T03:05:30.864Z,37.6
2018-09-28T03:06:32.238Z,38.1
2018-09-28T03:07:33.807Z,38.1
2018-09-28T03:08:35.377Z,37.1
2018-09-28T03:09:36.916Z,37.6
2018-09-28T03:10:38.482Z,38.1
2018-09-28T03:11:40.046Z,37.6
2018-09-28T03:12:41.635Z,37.6
2018-09-28T03:13:43.211Z,37.1
2018-09-28T03:14:44.651Z,37.1
2018-09-28T03:15:46.076Z,37.1
2018-09-28T03:16:47.468Z,38.1
2018-09-28T03:17:49.046Z,37.1
2018-09-28T03:18:50.600Z,37.1
2018-09-28T03:19:52.059Z,37.6
2018-09-28T03:20:53.294Z,37.6
2018-09-28T03:21:54.868Z,37.6
2018-09-28T03:22:56.438Z,37.6
2018-09-28T03:23:57.834Z,37.1
2018-09-28T03:24:59.398Z,37.6
2018-09-28T03:26:01.301Z,38.1
2018-09-28T03:27:02.798Z,38.1
2018-09-28T03:28:04.353Z,37.6
2018-09-28T03:29:05.940Z,38.1
2018-09-28T03:30:07.554Z,38.6
2018-09-28T03:31:08.992Z,38.6
2018-09-28T03:32:10.418Z,39.1
2018-09-28T03:33:11.989Z,38.6
2018-09-28T03:34:13.540Z,38.6
2018-09-28T03:35:14.914Z,39.1
2018-09-28T03:36:16.483Z,38.6
2018-09-28T03:37:19.075Z,39.6
2018-09-28T03:38:20.794Z,39.6
2018-09-28T03:39:22.270Z,39.6
2018-09-28T03:40:24.000Z,39.1
2018-09-28T03:41:25.781Z,39.6
2018-09-28T03:42:27.206Z,39.6
2018-09-28T03:43:28.832Z,39.6
2018-09-28T03:44:30.484Z,39.6
2018-09-28T03:45:31.913Z,39.6
2018-09-28T03:46:33.503Z,39.6
2018-09-28T03:47:35.121Z,39.1
2018-09-28T03:48:36.376Z,40.1
2018-09-28T03:49:37.664Z,39.6
2018-09-28T03:50:39.244Z,39.6
2018-09-28T03:51:40.830Z,40.1
2018-09-28T03:52:42.392Z,39.6
2018-09-28T03:53:43.961Z,39.1
2018-09-28T03:54:45.529Z,39.6
2018-09-28T03:55:47.097Z,40.1
2018-09-28T03:56:48.670Z,39.6
2018-09-28T03:57:50.236Z,39.6
2018-09-28T03:58:51.807Z,40.1
2018-09-28T03:59:53.033Z,39.6
2018-09-28T04:00:54.586Z,40.1
2018-09-28T04:01:56.146Z,39.1
2018-09-28T04:02:57.755Z,39.1
2018-09-28T04:03:59.567Z,39.1
2018-09-28T04:05:01.124Z,39.1
2018-09-28T04:06:02.675Z,39.1
2018-09-28T04:07:04.239Z,40.1
2018-09-28T04:08:05.629Z,39.1
2018-09-28T04:09:07.056Z,39.6
2018-09-28T04:10:08.634Z,40.1
2018-09-28T04:11:10.177Z,39.1
2018-09-28T04:12:11.738Z,39.1
2018-09-28T04:13:13.139Z,39.1
2018-09-28T04:14:14.531Z,39.1
2018-09-28T04:15:16.462Z,39.1
2018-09-28T04:16:18.457Z,39.6
2018-09-28T04:17:20.025Z,39.6
2018-09-28T04:18:21.416Z,39.1
2018-09-28T04:19:22.849Z,38.1
2018-09-28T04:20:24.438Z,38.6
2018-09-28T04:21:25.985Z,38.6
2018-09-28T04:22:27.403Z,39.1
2018-09-28T04:23:28.970Z,38.6
2018-09-28T04:24:30.542Z,38.6
2018-09-28T04:25:32.110Z,38.6
2018-09-28T04:26:33.669Z,39.1
2018-09-28T04:27:35.069Z,38.6
2018-09-28T04:28:36.463Z,38.1
2018-09-28T04:29:38.044Z,39.1
2018-09-28T04:30:39.455Z,39.1
2018-09-28T04:31:41.036Z,38.6
2018-09-28T04:32:42.590Z,38.6
2018-09-28T04:33:44.182Z,38.1
2018-09-28T04:34:45.748Z,39.1
2018-09-28T04:35:47.310Z,39.1
2018-09-28T04:36:48.886Z,38.6
2018-09-28T04:37:50.271Z,38.6
2018-09-28T04:38:51.842Z,37.6
2018-09-28T04:39:53.530Z,38.1
2018-09-28T04:40:55.019Z,38.1
2018-09-28T04:41:56.627Z,37.6
2018-09-28T04:42:58.062Z,38.6
2018-09-28T04:43:59.471Z,38.6
2018-09-28T04:45:01.201Z,38.6
2018-09-28T04:46:02.867Z,38.1
2018-09-28T04:47:04.276Z,38.6
2018-09-28T04:48:05.837Z,38.6
2018-09-28T04:49:07.232Z,38.1
2018-09-28T04:50:08.802Z,38.6
2018-09-28T04:51:10.363Z,38.1
2018-09-28T04:52:11.594Z,38.1
2018-09-28T04:53:13.139Z,38.1
2018-09-28T04:54:14.705Z,38.6
2018-09-28T04:55:16.105Z,38.6
2018-09-28T04:56:17.702Z,38.1
2018-09-28T04:57:19.268Z,38.1
2018-09-28T04:58:20.664Z,38.6
2018-09-28T04:59:22.238Z,37.6
2018-09-28T05:00:23.668Z,38.1
2018-09-28T05:01:25.234Z,38.1
2018-09-28T05:02:26.795Z,38.1
2018-09-28T05:03:28.187Z,38.1
2018-09-28T05:04:29.747Z,38.1
2018-09-28T05:05:31.142Z,37.6
2018-09-28T05:06:32.545Z,38.1
2018-09-28T05:07:34.113Z,37.6
2018-09-28T05:08:35.341Z,37.6
2018-09-28T05:09:36.931Z,37.6
2018-09-28T05:10:38.501Z,37.1
2018-09-28T05:11:40.074Z,37.6
2018-09-28T05:12:41.661Z,37.6
2018-09-28T05:13:43.201Z,37.6
2018-09-28T05:14:44.603Z,37.6
2018-09-28T05:15:46.030Z,37.6
2018-09-28T05:16:47.608Z,37.6
2018-09-28T05:17:49.168Z,38.1
2018-09-28T05:18:50.585Z,38.6
2018-09-28T05:19:52.189Z,38.1
2018-09-28T05:20:53.758Z,38.1
2018-09-28T05:21:55.343Z,38.6
2018-09-28T05:22:56.735Z,38.1
2018-09-28T05:23:58.295Z,38.1
2018-09-28T05:24:59.784Z,39.1
2018-09-28T05:26:01.380Z,38.6
2018-09-28T05:27:02.947Z,38.6
2018-09-28T05:28:04.558Z,38.6
2018-09-28T05:29:05.999Z,39.6
2018-09-28T05:30:07.557Z,39.1
2018-09-28T05:31:09.434Z,40.1
2018-09-28T05:32:11.919Z,40.1
2018-09-28T05:33:13.988Z,39.6
2018-09-28T05:34:15.572Z,40.1
2018-09-28T05:35:17.160Z,39.6
2018-09-28T05:36:18.726Z,39.6
2018-09-28T05:37:20.857Z,39.6
2018-09-28T05:38:22.624Z,40.6
2018-09-28T05:39:24.210Z,40.6
2018-09-28T05:40:26.067Z,40.1
2018-09-28T05:41:27.647Z,41.1
2018-09-28T05:42:29.228Z,40.1
2018-09-28T05:43:30.786Z,40.6
2018-09-28T05:44:32.223Z,40.1
2018-09-28T05:45:33.619Z,40.1
2018-09-28T05:46:35.183Z,40.1
2018-09-28T05:47:36.596Z,40.6
2018-09-28T05:48:38.206Z,40.6
2018-09-28T05:49:39.775Z,39.1
2018-09-28T05:50:41.429Z,40.6
2018-09-28T05:51:43.007Z,40.6
2018-09-28T05:52:44.577Z,39.1
2018-09-28T05:53:46.162Z,39.6
2018-09-28T05:54:47.713Z,39.6
2018-09-28T05:55:49.277Z,39.6
2018-09-28T05:56:50.843Z,39.6
2018-09-28T05:57:52.406Z,40.1
2018-09-28T05:58:53.637Z,40.1
2018-09-28T05:59:55.084Z,40.1
2018-09-28T06:00:56.333Z,40.1
2018-09-28T06:01:57.735Z,40.1
2018-09-28T06:02:59.300Z,39.1
2018-09-28T06:04:00.978Z,39.6
2018-09-28T06:05:02.601Z,40.6
2018-09-28T06:06:04.189Z,39.1
2018-09-28T06:07:05.657Z,39.1
2018-09-28T06:08:07.215Z,39.6
2018-09-28T06:09:08.634Z,39.1
2018-09-28T06:10:10.198Z,38.6
2018-09-28T06:11:11.769Z,39.1
2018-09-28T06:12:13.351Z,39.1
2018-09-28T06:13:14.935Z,39.6
2018-09-28T06:14:16.510Z,39.1
2018-09-28T06:15:17.911Z,38.6
2018-09-28T06:16:19.067Z,39.1
2018-09-28T06:17:20.145Z,39.1
2018-09-28T06:18:21.494Z,39.6
2018-09-28T06:19:23.105Z,39.6
2018-09-28T06:20:24.556Z,39.1
2018-09-28T06:21:26.261Z,39.1
2018-09-28T06:22:27.669Z,39.1
2018-09-28T06:23:29.462Z,38.6
2018-09-28T06:24:30.881Z,39.1
2018-09-28T06:25:32.669Z,38.6
2018-09-28T06:26:34.229Z,39.6
2018-09-28T06:27:35.821Z,38.6
2018-09-28T06:28:37.394Z,39.1
2018-09-28T06:29:39.000Z,38.6
2018-09-28T06:30:40.629Z,38.6
2018-09-28T06:31:42.075Z,39.1
2018-09-28T06:32:43.681Z,38.1
2018-09-28T06:33:45.269Z,38.6
2018-09-28T06:34:46.832Z,38.6
2018-09-28T06:35:48.490Z,38.1
2018-09-28T06:36:50.235Z,38.6
2018-09-28T06:37:51.654Z,38.6
2018-09-28T06:38:53.236Z,38.1
2018-09-28T06:39:54.821Z,38.6
2018-09-28T06:40:56.218Z,38.6
2018-09-28T06:41:58.107Z,38.6
2018-09-28T06:43:00.153Z,38.1
2018-09-28T06:44:01.722Z,38.6
2018-09-28T06:45:03.124Z,38.6
2018-09-28T06:46:04.355Z,37.6
2018-09-28T06:47:05.756Z,37.6
2018-09-28T06:48:07.499Z,39.1
2018-09-28T06:49:09.041Z,38.6
2018-09-28T06:50:10.447Z,37.6
2018-09-28T06:51:12.210Z,37.6
2018-09-28T06:52:13.674Z,38.1
2018-09-28T06:53:15.077Z,38.6
2018-09-28T06:54:16.970Z,38.6
2018-09-28T06:55:18.234Z,38.6
2018-09-28T06:56:19.900Z,38.6
2018-09-28T06:57:21.469Z,38.1
2018-09-28T06:58:22.967Z,37.6
2018-09-28T06:59:24.547Z,37.1
2018-09-28T07:00:26.652Z,38.6
2018-09-28T07:01:28.239Z,38.1
2018-09-28T07:02:29.641Z,38.1
2018-09-28T07:03:31.224Z,38.1
2018-09-28T07:04:32.799Z,38.1
2018-09-28T07:05:34.378Z,37.6
2018-09-28T07:06:35.837Z,38.1
2018-09-28T07:07:37.228Z,38.1
2018-09-28T07:08:38.628Z,37.6
2018-09-28T07:09:40.048Z,38.1
2018-09-28T07:10:41.298Z,38.1
2018-09-28T07:11:43.281Z,37.6
2018-09-28T07:12:44.979Z,36.7
2018-09-28T07:13:46.648Z,37.6
2018-09-28T07:14:48.217Z,38.1
2018-09-28T07:15:49.775Z,37.1
2018-09-28T07:16:51.924Z,38.1
2018-09-28T07:17:54.425Z,37.6
2018-09-28T07:18:56.197Z,38.1
2018-09-28T07:19:57.437Z,38.1
2018-09-28T07:20:58.827Z,38.6
2018-09-28T07:22:00.429Z,38.1
2018-09-28T07:23:01.991Z,38.6
2018-09-28T07:24:03.952Z,38.6
2018-09-28T07:25:04.761Z,39.1
2018-09-28T07:26:06.332Z,40.1
2018-09-28T07:27:07.728Z,38.6
2018-09-28T07:28:08.972Z,39.1
2018-09-28T07:29:10.206Z,39.6
2018-09-28T07:30:11.575Z,40.1
2018-09-28T07:31:13.239Z,39.1
2018-09-28T07:32:14.639Z,39.6
2018-09-28T07:33:16.049Z,40.1
2018-09-28T07:34:17.278Z,39.6
2018-09-28T07:35:18.661Z,39.6
2018-09-28T07:36:20.726Z,40.1
2018-09-28T07:37:22.254Z,40.1
2018-09-28T07:38:23.826Z,40.1
2018-09-28T07:39:25.054Z,40.1
2018-09-28T07:40:26.481Z,40.1
2018-09-28T07:41:28.084Z,39.1
2018-09-28T07:42:29.496Z,39.6
2018-09-28T07:43:31.067Z,39.6
2018-09-28T07:44:32.651Z,40.1
2018-09-28T07:45:33.875Z,39.6
2018-09-28T07:46:35.438Z,39.6
2018-09-28T07:47:37.022Z,40.1
2018-09-28T07:48:38.429Z,40.1
2018-09-28T07:49:39.987Z,40.1
2018-09-28T07:50:41.571Z,40.1
2018-09-28T07:51:43.168Z,40.1
2018-09-28T07:52:44.746Z,40.1
2018-09-28T07:53:46.313Z,40.1
2018-09-28T07:54:47.530Z,39.6
2018-09-28T07:55:49.412Z,39.6
2018-09-28T07:56:51.179Z,40.1
2018-09-28T07:57:52.617Z,40.6
2018-09-28T07:58:54.191Z,39.1
2018-09-28T07:59:55.488Z,39.1
2018-09-28T08:00:57.150Z,40.1
2018-09-28T08:01:58.726Z,39.1
2018-09-28T08:03:00.300Z,39.6
2018-09-28T08:04:02.272Z,39.1
2018-09-28T08:05:04.338Z,39.1
2018-09-28T08:06:05.729Z,39.1
2018-09-28T08:07:07.300Z,39.1
2018-09-28T08:08:08.690Z,39.1
2018-09-28T08:09:10.091Z,38.6
2018-09-28T08:10:11.690Z,39.1
2018-09-28T08:11:13.100Z,39.1
2018-09-28T08:12:14.671Z,40.1
2018-09-28T08:13:16.072Z,39.1
2018-09-28T08:14:17.493Z,40.1
2018-09-28T08:15:18.868Z,38.6
2018-09-28T08:16:20.253Z,38.6
2018-09-28T08:17:21.853Z,39.6
2018-09-28T08:18:23.427Z,39.1
2018-09-28T08:19:24.995Z,38.6
2018-09-28T08:20:26.238Z,38.6
2018-09-28T08:21:27.809Z,38.6
2018-09-28T08:22:29.378Z,38.6
2018-09-28T08:23:31.442Z,39.1
2018-09-28T08:24:33.612Z,38.1
2018-09-28T08:25:35.276Z,39.1
2018-09-28T08:26:36.849Z,38.6
2018-09-28T08:27:38.468Z,38.6
2018-09-28T08:28:39.873Z,38.1
2018-09-28T08:29:41.264Z,37.6
2018-09-28T08:30:42.658Z,38.1
2018-09-28T08:31:44.058Z,37.6
2018-09-28T08:32:45.612Z,38.6
2018-09-28T08:33:46.861Z,38.1
2018-09-28T08:34:48.281Z,38.6
2018-09-28T08:35:49.883Z,39.1
2018-09-28T08:36:51.956Z,38.6
2018-09-28T08:37:53.916Z,38.6
2018-09-28T08:38:55.480Z,38.1
2018-09-28T08:39:57.032Z,38.6
2018-09-28T08:40:58.600Z,38.1
2018-09-28T08:42:00.847Z,38.1
2018-09-28T08:43:02.462Z,37.6
2018-09-28T08:44:03.890Z,38.1
2018-09-28T08:45:05.468Z,38.1
2018-09-28T08:46:06.878Z,38.6
2018-09-28T08:47:08.289Z,38.1
2018-09-28T08:48:09.716Z,38.6
2018-09-28T08:49:10.949Z,37.6
2018-09-28T08:50:12.724Z,38.6
2018-09-28T08:51:14.325Z,38.6
2018-09-28T08:52:15.881Z,37.6
2018-09-28T08:53:17.276Z,38.1
2018-09-28T08:54:18.872Z,37.6
2018-09-28T08:55:20.461Z,38.1
2018-09-28T08:56:22.131Z,38.1
2018-09-28T08:57:23.704Z,38.1
2018-09-28T08:58:25.093Z,38.1
2018-09-28T08:59:26.331Z,38.1
2018-09-28T09:00:27.756Z,37.6
2018-09-28T09:01:29.328Z,37.6
2018-09-28T09:02:30.889Z,38.1
2018-09-28T09:03:32.470Z,38.1
2018-09-28T09:04:34.037Z,38.1
2018-09-28T09:05:35.643Z,37.6
2018-09-28T09:06:37.272Z,37.6
2018-09-28T09:07:38.728Z,37.6
2018-09-28T09:08:40.296Z,38.1
2018-09-28T09:09:41.860Z,38.1
2018-09-28T09:10:43.248Z,38.1
2018-09-28T09:11:44.681Z,38.6
2018-09-28T09:12:46.251Z,39.1
2018-09-28T09:13:47.820Z,38.6
2018-09-28T09:14:49.387Z,39.6
2018-09-28T09:15:50.764Z,39.1
2018-09-28T09:16:52.163Z,39.1
2018-09-28T09:17:53.883Z,39.6
2018-09-28T09:18:55.469Z,40.1
2018-09-28T09:19:57.036Z,39.6
2018-09-28T09:20:58.421Z,39.6
2018-09-28T09:21:59.996Z,40.6
2018-09-28T09:23:01.598Z,40.6
2018-09-28T09:24:03.428Z,40.6
2018-09-28T09:25:05.149Z,39.6
2018-09-28T09:26:06.573Z,40.1
2018-09-28T09:27:07.811Z,40.1
2018-09-28T09:28:09.348Z,40.6
2018-09-28T09:29:10.756Z,40.6
2018-09-28T09:30:12.340Z,40.6
2018-09-28T09:31:13.919Z,40.1
2018-09-28T09:32:15.370Z,40.1
2018-09-28T09:33:16.928Z,40.6
2018-09-28T09:34:18.486Z,40.6
2018-09-28T09:35:20.053Z,40.1
2018-09-28T09:36:21.618Z,40.6
2018-09-28T09:37:23.254Z,40.6
2018-09-28T09:38:24.632Z,40.1
2018-09-28T09:39:26.057Z,39.6
2018-09-28T09:40:27.289Z,40.1
2018-09-28T09:41:28.858Z,40.1
2018-09-28T09:42:30.253Z,39.1
2018-09-28T09:43:31.692Z,40.6
2018-09-28T09:44:33.257Z,40.6
2018-09-28T09:45:34.833Z,39.1
2018-09-28T09:46:36.388Z,39.1
2018-09-28T09:47:37.966Z,40.1
2018-09-28T09:48:39.538Z,39.6
2018-09-28T09:49:40.947Z,39.1
2018-09-28T09:50:42.350Z,39.6
2018-09-28T09:51:43.918Z,39.1
2018-09-28T09:52:45.493Z,39.6
2018-09-28T09:53:47.060Z,40.1
2018-09-28T09:54:48.625Z,39.6
2018-09-28T09:55:50.186Z,39.6
2018-09-28T09:56:51.751Z,39.6
2018-09-28T09:57:54.090Z,39.6
2018-09-28T09:58:56.094Z,39.6
2018-09-28T09:59:57.664Z,39.6
2018-09-28T10:00:59.066Z,39.6
2018-09-28T10:02:00.636Z,39.6
2018-09-28T10:03:02.268Z,39.1
2018-09-28T10:04:03.842Z,38.6
2018-09-28T10:05:05.247Z,39.6
2018-09-28T10:06:06.475Z,38.6
2018-09-28T10:07:08.035Z,38.6
2018-09-28T10:08:09.602Z,38.6
2018-09-28T10:09:11.000Z,39.6
2018-09-28T10:10:12.567Z,39.1
2018-09-28T10:11:14.125Z,38.6
2018-09-28T10:12:15.906Z,39.1
2018-09-28T10:13:17.738Z,39.1
2018-09-28T10:14:19.307Z,38.6
2018-09-28T10:15:20.722Z,39.1
2018-09-28T10:16:21.942Z,39.1
2018-09-28T10:17:23.337Z,38.6
2018-09-28T10:18:24.914Z,38.6
2018-09-28T10:19:26.984Z,38.1
2018-09-28T10:20:28.688Z,38.1
2018-09-28T10:21:30.278Z,38.6
2018-09-28T10:22:31.680Z,38.1
2018-09-28T10:23:33.271Z,37.6
2018-09-28T10:24:34.514Z,38.6
2018-09-28T10:25:36.087Z,38.1
2018-09-28T10:26:37.666Z,38.6
2018-09-28T10:27:39.439Z,39.1
2018-09-28T10:28:41.770Z,38.6
2018-09-28T10:29:43.195Z,38.6
2018-09-28T10:30:44.781Z,37.6
2018-09-28T10:31:46.345Z,38.1
2018-09-28T10:33:02.605Z,38.1
2018-09-28T10:34:04.004Z,38.6
2018-09-28T10:35:05.584Z,37.6
2018-09-28T10:36:06.994Z,37.1
2018-09-28T10:37:08.571Z,38.1
2018-09-28T10:38:09.980Z,38.6
2018-09-28T10:39:11.801Z,37.6
2018-09-28T10:40:13.730Z,38.1
2018-09-28T10:41:15.982Z,37.6
2018-09-28T10:42:18.042Z,38.1
2018-09-28T10:43:19.616Z,37.1
2018-09-28T10:44:21.186Z,38.1
2018-09-28T10:45:22.931Z,38.1
2018-09-28T10:46:24.656Z,38.1
2018-09-28T10:47:26.247Z,38.1
2018-09-28T10:48:27.826Z,37.6
2018-09-28T10:49:29.389Z,37.6
2018-09-28T10:50:30.968Z,38.6
2018-09-28T10:51:32.781Z,38.1
2018-09-28T10:52:34.788Z,38.1
2018-09-28T10:53:36.409Z,38.1
2018-09-28T10:54:37.817Z,37.6
2018-09-28T10:55:39.374Z,38.1
2018-09-28T10:56:40.971Z,38.1
2018-09-28T10:57:42.551Z,38.1
2018-09-28T10:58:44.241Z,38.1
2018-09-28T10:59:45.891Z,37.6
2018-09-28T11:00:47.457Z,38.6
2018-09-28T11:01:49.060Z,38.6
2018-09-28T11:02:50.628Z,38.6
2018-09-28T11:03:52.239Z,39.1
2018-09-28T11:04:53.643Z,38.1
2018-09-28T11:05:55.227Z,39.1
2018-09-28T11:06:56.807Z,39.1
2018-09-28T11:07:58.199Z,39.1
2018-09-28T11:09:00.149Z,39.1
2018-09-28T11:10:01.960Z,39.6
2018-09-28T11:11:03.576Z,39.1
2018-09-28T11:12:05.149Z,39.6
2018-09-28T11:13:08.228Z,39.6
2018-09-28T11:14:09.790Z,39.1
2018-09-28T11:15:11.461Z,39.6
2018-09-28T11:16:13.073Z,39.6
2018-09-28T11:17:14.489Z,40.1
2018-09-28T11:18:15.901Z,39.6
2018-09-28T11:19:17.476Z,40.1
2018-09-28T11:20:19.014Z,40.1
2018-09-28T11:21:20.630Z,39.6
2018-09-28T11:22:22.436Z,39.1
2018-09-28T11:23:23.858Z,40.6
2018-09-28T11:24:25.426Z,39.6
2018-09-28T11:25:26.973Z,39.1
2018-09-28T11:26:28.859Z,40.1
2018-09-28T11:27:30.743Z,40.1
2018-09-28T11:28:32.401Z,40.1
2018-09-28T11:29:33.978Z,40.6
2018-09-28T11:30:35.401Z,40.1
2018-09-28T11:31:36.798Z,40.6
2018-09-28T11:32:38.394Z,40.1
2018-09-28T11:33:40.341Z,40.1
2018-09-28T11:34:41.359Z,41.1
2018-09-28T11:35:42.792Z,39.6
2018-09-28T11:36:44.369Z,39.6
2018-09-28T11:37:45.972Z,40.1
2018-09-28T11:38:47.575Z,39.6
2018-09-28T11:39:49.644Z,39.1
2018-09-28T11:40:51.475Z,39.1
2018-09-28T11:41:53.068Z,39.6
2018-09-28T11:42:54.646Z,39.6
2018-09-28T11:43:56.217Z,40.6
2018-09-28T11:44:57.788Z,39.6
2018-09-28T11:45:59.365Z,39.1
2018-09-28T11:47:00.926Z,39.6
2018-09-28T11:48:02.498Z,40.1
2018-09-28T11:49:03.963Z,39.6
2018-09-28T11:50:05.255Z,40.1
2018-09-28T11:51:06.888Z,39.1
2018-09-28T11:52:08.487Z,39.6
2018-09-28T11:53:10.038Z,38.6
2018-09-28T11:54:11.597Z,38.6
2018-09-28T11:55:13.164Z,39.6
2018-09-28T11:56:14.732Z,39.1
2018-09-28T11:57:16.459Z,39.1
2018-09-28T11:58:18.257Z,39.1
2018-09-28T11:59:19.830Z,39.1
2018-09-28T12:00:21.421Z,38.6
2018-09-28T12:01:22.811Z,38.6
2018-09-28T12:02:24.618Z,39.1
2018-09-28T12:03:27.197Z,38.6
2018-09-28T12:04:29.040Z,38.6
2018-09-28T12:05:31.208Z,38.1
2018-09-28T12:06:33.731Z,38.6
2018-09-28T12:07:35.849Z,38.6
2018-09-28T12:08:37.250Z,38.6
2018-09-28T12:09:39.074Z,38.6
2018-09-28T12:10:40.684Z,39.1
2018-09-28T12:11:42.257Z,38.6
2018-09-28T12:12:44.231Z,38.1
2018-09-28T12:13:46.003Z,38.6
2018-09-28T12:14:47.417Z,38.6
2018-09-28T12:15:49.418Z,38.1
2018-09-28T12:16:51.177Z,38.1
2018-09-28T12:17:52.765Z,38.6
2018-09-28T12:18:54.169Z,38.6
2018-09-28T12:19:55.720Z,38.1
2018-09-28T12:20:57.324Z,38.6
2018-09-28T12:21:58.923Z,38.6
2018-09-28T12:23:00.322Z,38.1
2018-09-28T12:24:01.915Z,38.6
2018-09-28T12:25:03.534Z,38.1
2018-09-28T12:26:05.118Z,37.6
2018-09-28T12:27:06.720Z,38.1
2018-09-28T12:28:08.369Z,37.6
2018-09-28T12:29:09.771Z,37.6
2018-09-28T12:30:11.568Z,38.1
2018-09-28T12:31:13.256Z,38.6
2018-09-28T12:32:14.816Z,38.1
2018-09-28T12:33:16.483Z,37.6
2018-09-28T12:34:18.065Z,37.6
2018-09-28T12:35:19.644Z,37.6
2018-09-28T12:36:21.688Z,38.6
2018-09-28T12:37:23.519Z,37.6
2018-09-28T12:38:24.923Z,38.1
2018-09-28T12:39:26.713Z,38.1
2018-09-28T12:40:28.453Z,38.1
2018-09-28T12:41:30.012Z,38.6
2018-09-28T12:42:31.819Z,38.6
2018-09-28T12:43:36.135Z,38.6
2018-09-28T12:44:38.065Z,39.6
2018-09-28T12:45:40.336Z,39.6
2018-09-28T12:46:42.177Z,38.6
2018-09-28T12:47:43.458Z,39.6
2018-09-28T12:48:45.181Z,39.6
2018-09-28T12:49:46.758Z,39.6
2018-09-28T12:50:48.434Z,40.1
2018-09-28T12:51:50.415Z,39.1
2018-09-28T12:52:52.017Z,39.1
2018-09-28T12:53:53.574Z,40.1
2018-09-28T12:54:54.994Z,39.6
2018-09-28T12:55:56.441Z,40.1
2018-09-28T12:56:58.030Z,40.1
2018-09-28T12:57:59.606Z,40.1
2018-09-28T12:59:01.000Z,39.6
2018-09-28T13:00:02.598Z,39.6
2018-09-28T13:01:05.458Z,40.1
2018-09-28T13:02:07.475Z,39.6
2018-09-28T13:03:09.150Z,39.6
2018-09-28T13:04:10.729Z,40.1
2018-09-28T13:05:12.299Z,39.6
2018-09-28T13:06:14.061Z,41.1
2018-09-28T13:07:15.533Z,39.6
2018-09-28T13:08:17.595Z,39.6
2018-09-28T13:09:19.119Z,40.1
2018-09-28T13:10:20.372Z,40.1
2018-09-28T13:11:21.971Z,40.1
2018-09-28T13:12:24.005Z,40.1
2018-09-28T13:13:26.060Z,40.1
2018-09-28T13:14:28.070Z,39.6
2018-09-28T13:15:30.647Z,40.1
2018-09-28T13:16:32.055Z,40.1
2018-09-28T13:17:33.624Z,39.6
2018-09-28T13:18:35.324Z,40.1
2018-09-28T13:19:37.091Z,39.6
2018-09-28T13:20:38.654Z,40.1
2018-09-28T13:21:40.567Z,39.1
2018-09-28T13:22:42.359Z,39.1
2018-09-28T13:23:43.930Z,40.1
2018-09-28T13:24:45.639Z,40.1
2018-09-28T13:25:47.229Z,39.1
2018-09-28T13:26:48.809Z,39.6
2018-09-28T13:27:50.581Z,38.6
2018-09-28T13:28:52.275Z,39.1
2018-09-28T13:29:54.228Z,39.1
2018-09-28T13:30:55.885Z,39.1
2018-09-28T13:31:57.128Z,39.6
2018-09-28T13:32:58.697Z,39.1
2018-09-28T13:34:00.287Z,39.1
2018-09-28T13:35:01.835Z,39.6
2018-09-28T13:36:03.495Z,39.6
2018-09-28T13:37:05.022Z,39.1
2018-09-28T13:38:07.381Z,39.1
2018-09-28T13:39:09.744Z,38.6
2018-09-28T13:40:11.707Z,39.1